sensor_id;sensor_type;location;lat;lon;timestamp;temperature;humidity
7427;DHT22;3755;59.316;18.092;2023-12-28T00:02:26;-3.70;99.90
7427;DHT22;3755;59.316;18.092;2023-12-28T00:04:56;-4.00;99.90
7427;DHT22;3755;59.316;18.092;2023-12-28T00:07:25;-3.80;99.90
7427;DHT22;3755;59.316;18.092;2023-12-28T00:09:52;-4.10;99.90
7427;DHT22;3755;59.316;18.092;2023-12-28T00:12:24;-4.20;99.90
7427;DHT22;3755;59.316;18.092;2023-12-28T00:14:51;-4.20;99.90
7427;DHT22;3755;59.316;18.092;2023-12-28T00:17:37;-4.30;99.90
7427;DHT22;3755;59.316;18.092;2023-12-28T00:20:06;-4.30;99.90
7427;DHT22;3755;59.316;18.092;2023-12-28T00:22:36;-4.40;99.90
7427;DHT22;3755;59.316;18.092;2023-12-28T00:25:04;-4.40;99.90
7427;DHT22;3755;59.316;18.092;2023-12-28T00:27:47;-4.30;99.90
7427;DHT22;3755;59.316;18.092;2023-12-28T00:30:17;-4.20;99.90
7427;DHT22;3755;59.316;18.092;2023-12-28T00:32:44;-4.60;99.90
7427;DHT22;3755;59.316;18.092;2023-12-28T00:35:12;-4.20;99.90
7427;DHT22;3755;59.316;18.092;2023-12-28T00:37:39;-4.20;99.90
7427;DHT22;3755;59.316;18.092;2023-12-28T00:40:08;-4.20;99.90
7427;DHT22;3755;59.316;18.092;2023-12-28T00:42:35;-4.10;99.90
7427;DHT22;3755;59.316;18.092;2023-12-28T00:45:08;-4.00;99.90
7427;DHT22;3755;59.316;18.092;2023-12-28T00:47:37;-4.10;99.90
7427;DHT22;3755;59.316;18.092;2023-12-28T00:50:06;-4.10;99.90
7427;DHT22;3755;59.316;18.092;2023-12-28T00:52:33;-4.10;99.90
7427;DHT22;3755;59.316;18.092;2023-12-28T00:55:03;-4.10;99.90
7427;DHT22;3755;59.316;18.092;2023-12-28T00:57:32;-4.20;99.90
7427;DHT22;3755;59.316;18.092;2023-12-28T00:59:59;-4.30;99.90
7427;DHT22;3755;59.316;18.092;2023-12-28T01:02:32;-4.30;99.90
7427;DHT22;3755;59.316;18.092;2023-12-28T01:04:59;-4.20;99.90
7427;DHT22;3755;59.316;18.092;2023-12-28T01:07:27;-4.20;99.90
7427;DHT22;3755;59.316;18.092;2023-12-28T01:09:55;-4.40;99.90
7427;DHT22;3755;59.316;18.092;2023-12-28T01:12:22;-4.40;99.90
7427;DHT22;3755;59.316;18.092;2023-12-28T01:14:49;-4.40;99.90
7427;DHT22;3755;59.316;18.092;2023-12-28T01:17:18;-4.50;99.90
7427;DHT22;3755;59.316;18.092;2023-12-28T01:19:47;-4.50;99.90
7427;DHT22;3755;59.316;18.092;2023-12-28T01:22:15;-4.40;99.90
7427;DHT22;3755;59.316;18.092;2023-12-28T01:24:46;-4.50;99.90
7427;DHT22;3755;59.316;18.092;2023-12-28T01:27:15;-4.50;99.90
7427;DHT22;3755;59.316;18.092;2023-12-28T01:29:44;-4.50;99.90
7427;DHT22;3755;59.316;18.092;2023-12-28T01:32:11;-4.50;99.90
7427;DHT22;3755;59.316;18.092;2023-12-28T01:34:40;-4.50;99.90
7427;DHT22;3755;59.316;18.092;2023-12-28T01:37:10;-4.50;99.90
7427;DHT22;3755;59.316;18.092;2023-12-28T01:39:38;-4.50;99.90
7427;DHT22;3755;59.316;18.092;2023-12-28T01:42:07;-4.70;99.90
7427;DHT22;3755;59.316;18.092;2023-12-28T01:44:35;-4.70;99.90
7427;DHT22;3755;59.316;18.092;2023-12-28T01:47:06;-4.70;99.90
7427;DHT22;3755;59.316;18.092;2023-12-28T01:49:47;-4.60;99.90
7427;DHT22;3755;59.316;18.092;2023-12-28T01:52:18;-4.60;99.90
7427;DHT22;3755;59.316;18.092;2023-12-28T01:54:45;-4.60;99.90
7427;DHT22;3755;59.316;18.092;2023-12-28T01:57:24;-4.60;99.90
7427;DHT22;3755;59.316;18.092;2023-12-28T01:59:52;-4.60;99.90
7427;DHT22;3755;59.316;18.092;2023-12-28T02:02:21;-4.60;99.90
7427;DHT22;3755;59.316;18.092;2023-12-28T02:04:51;-4.50;99.90
7427;DHT22;3755;59.316;18.092;2023-12-28T02:07:20;-4.50;99.90
7427;DHT22;3755;59.316;18.092;2023-12-28T02:09:48;-4.60;99.90
7427;DHT22;3755;59.316;18.092;2023-12-28T02:12:15;-4.70;99.90
7427;DHT22;3755;59.316;18.092;2023-12-28T02:14:42;-4.70;99.90
7427;DHT22;3755;59.316;18.092;2023-12-28T02:17:13;-4.80;99.90
7427;DHT22;3755;59.316;18.092;2023-12-28T02:19:47;-4.60;99.90
7427;DHT22;3755;59.316;18.092;2023-12-28T02:22:16;-4.60;99.90
7427;DHT22;3755;59.316;18.092;2023-12-28T02:25:11;-4.60;99.90
7427;DHT22;3755;59.316;18.092;2023-12-28T02:27:40;-4.60;99.90
7427;DHT22;3755;59.316;18.092;2023-12-28T02:30:07;-4.40;99.90
7427;DHT22;3755;59.316;18.092;2023-12-28T02:32:40;-4.70;99.90
7427;DHT22;3755;59.316;18.092;2023-12-28T02:35:22;-4.90;99.90
7427;DHT22;3755;59.316;18.092;2023-12-28T02:37:51;-4.90;99.90
7427;DHT22;3755;59.316;18.092;2023-12-28T02:40:22;-4.90;99.90
7427;DHT22;3755;59.316;18.092;2023-12-28T02:42:50;-4.90;99.90
7427;DHT22;3755;59.316;18.092;2023-12-28T02:45:18;-4.80;99.90
7427;DHT22;3755;59.316;18.092;2023-12-28T02:47:45;-4.80;99.90
7427;DHT22;3755;59.316;18.092;2023-12-28T02:50:12;-4.80;99.90
7427;DHT22;3755;59.316;18.092;2023-12-28T02:52:39;-4.80;99.90
7427;DHT22;3755;59.316;18.092;2023-12-28T02:55:07;-4.80;99.90
7427;DHT22;3755;59.316;18.092;2023-12-28T02:57:37;-4.70;99.90
7427;DHT22;3755;59.316;18.092;2023-12-28T03:00:06;-4.60;99.90
7427;DHT22;3755;59.316;18.092;2023-12-28T03:02:35;-4.70;99.90
7427;DHT22;3755;59.316;18.092;2023-12-28T03:05:02;-4.70;99.90
7427;DHT22;3755;59.316;18.092;2023-12-28T03:07:31;-4.70;99.90
7427;DHT22;3755;59.316;18.092;2023-12-28T03:09:58;-4.70;99.90
7427;DHT22;3755;59.316;18.092;2023-12-28T03:12:25;-4.70;99.90
7427;DHT22;3755;59.316;18.092;2023-12-28T03:14:53;-4.70;99.90
7427;DHT22;3755;59.316;18.092;2023-12-28T03:17:20;-4.60;99.90
7427;DHT22;3755;59.316;18.092;2023-12-28T03:19:48;-4.60;99.90
7427;DHT22;3755;59.316;18.092;2023-12-28T03:22:15;-4.60;99.90
7427;DHT22;3755;59.316;18.092;2023-12-28T03:24:43;-4.60;99.90
7427;DHT22;3755;59.316;18.092;2023-12-28T03:27:10;-4.50;99.90
7427;DHT22;3755;59.316;18.092;2023-12-28T03:29:37;-4.60;99.90
7427;DHT22;3755;59.316;18.092;2023-12-28T03:32:06;-4.70;99.90
7427;DHT22;3755;59.316;18.092;2023-12-28T03:34:33;-4.70;99.90
7427;DHT22;3755;59.316;18.092;2023-12-28T03:37:01;-4.70;99.90
7427;DHT22;3755;59.316;18.092;2023-12-28T03:39:28;-4.60;99.90
7427;DHT22;3755;59.316;18.092;2023-12-28T03:41:55;-4.60;99.90
7427;DHT22;3755;59.316;18.092;2023-12-28T03:44:22;-4.60;99.90
7427;DHT22;3755;59.316;18.092;2023-12-28T03:46:50;-4.60;99.90
7427;DHT22;3755;59.316;18.092;2023-12-28T03:49:19;-4.60;99.90
7427;DHT22;3755;59.316;18.092;2023-12-28T03:51:48;-4.50;99.90
7427;DHT22;3755;59.316;18.092;2023-12-28T03:54:16;-4.50;99.90
7427;DHT22;3755;59.316;18.092;2023-12-28T03:56:44;-4.50;99.90
7427;DHT22;3755;59.316;18.092;2023-12-28T03:59:11;-4.50;99.90
7427;DHT22;3755;59.316;18.092;2023-12-28T04:01:38;-4.50;99.90
7427;DHT22;3755;59.316;18.092;2023-12-28T04:04:05;-4.30;99.90
7427;DHT22;3755;59.316;18.092;2023-12-28T04:06:38;-4.60;99.90
7427;DHT22;3755;59.316;18.092;2023-12-28T04:09:12;-4.60;99.90
7427;DHT22;3755;59.316;18.092;2023-12-28T04:11:40;-4.60;99.90
7427;DHT22;3755;59.316;18.092;2023-12-28T04:14:07;-4.70;99.90
7427;DHT22;3755;59.316;18.092;2023-12-28T04:16:35;-4.60;99.90
7427;DHT22;3755;59.316;18.092;2023-12-28T04:19:02;-4.70;99.90
7427;DHT22;3755;59.316;18.092;2023-12-28T04:21:29;-4.60;99.90
7427;DHT22;3755;59.316;18.092;2023-12-28T04:23:58;-4.70;99.90
7427;DHT22;3755;59.316;18.092;2023-12-28T04:26:25;-4.60;99.90
7427;DHT22;3755;59.316;18.092;2023-12-28T04:28:54;-4.60;99.90
7427;DHT22;3755;59.316;18.092;2023-12-28T04:31:21;-4.60;99.90
7427;DHT22;3755;59.316;18.092;2023-12-28T04:33:48;-4.60;99.90
7427;DHT22;3755;59.316;18.092;2023-12-28T04:36:15;-4.50;99.90
7427;DHT22;3755;59.316;18.092;2023-12-28T04:38:42;-4.50;99.90
7427;DHT22;3755;59.316;18.092;2023-12-28T04:41:11;-4.50;99.90
7427;DHT22;3755;59.316;18.092;2023-12-28T04:43:38;-4.50;99.90
7427;DHT22;3755;59.316;18.092;2023-12-28T04:46:06;-4.50;99.90
7427;DHT22;3755;59.316;18.092;2023-12-28T04:48:34;-4.50;99.90
7427;DHT22;3755;59.316;18.092;2023-12-28T04:51:02;-4.40;99.90
7427;DHT22;3755;59.316;18.092;2023-12-28T04:53:30;-4.30;99.90
7427;DHT22;3755;59.316;18.092;2023-12-28T04:55:58;-4.30;99.90
7427;DHT22;3755;59.316;18.092;2023-12-28T04:58:27;-4.30;99.90
7427;DHT22;3755;59.316;18.092;2023-12-28T05:00:54;-4.30;99.90
7427;DHT22;3755;59.316;18.092;2023-12-28T05:03:21;-4.30;99.90
7427;DHT22;3755;59.316;18.092;2023-12-28T05:05:49;-4.30;99.90
7427;DHT22;3755;59.316;18.092;2023-12-28T05:08:17;-4.10;99.90
7427;DHT22;3755;59.316;18.092;2023-12-28T05:10:45;-4.20;99.90
7427;DHT22;3755;59.316;18.092;2023-12-28T05:13:13;-4.20;99.90
7427;DHT22;3755;59.316;18.092;2023-12-28T05:15:42;-4.00;99.90
7427;DHT22;3755;59.316;18.092;2023-12-28T05:18:10;-4.10;99.90
7427;DHT22;3755;59.316;18.092;2023-12-28T05:20:37;-4.00;99.90
7427;DHT22;3755;59.316;18.092;2023-12-28T05:23:05;-3.90;99.90
7427;DHT22;3755;59.316;18.092;2023-12-28T05:25:32;-3.90;99.90
7427;DHT22;3755;59.316;18.092;2023-12-28T05:27:59;-3.90;99.90
7427;DHT22;3755;59.316;18.092;2023-12-28T05:30:26;-4.00;99.90
7427;DHT22;3755;59.316;18.092;2023-12-28T05:32:55;-3.90;99.90
7427;DHT22;3755;59.316;18.092;2023-12-28T05:35:22;-3.90;99.90
7427;DHT22;3755;59.316;18.092;2023-12-28T05:37:49;-3.90;99.90
7427;DHT22;3755;59.316;18.092;2023-12-28T05:40:16;-3.80;99.90
7427;DHT22;3755;59.316;18.092;2023-12-28T05:42:43;-3.80;99.90
7427;DHT22;3755;59.316;18.092;2023-12-28T05:45:11;-3.70;99.90
7427;DHT22;3755;59.316;18.092;2023-12-28T05:47:38;-3.90;99.90
7427;DHT22;3755;59.316;18.092;2023-12-28T05:50:07;-3.20;99.90
7427;DHT22;3755;59.316;18.092;2023-12-28T05:52:34;-3.60;99.90
7427;DHT22;3755;59.316;18.092;2023-12-28T05:55:02;-3.50;99.90
7427;DHT22;3755;59.316;18.092;2023-12-28T05:57:30;-3.40;99.90
7427;DHT22;3755;59.316;18.092;2023-12-28T05:59:57;-3.40;99.90
7427;DHT22;3755;59.316;18.092;2023-12-28T06:02:24;-3.30;99.90
7427;DHT22;3755;59.316;18.092;2023-12-28T06:04:51;-3.30;99.90
7427;DHT22;3755;59.316;18.092;2023-12-28T06:07:20;-3.30;99.90
7427;DHT22;3755;59.316;18.092;2023-12-28T06:09:48;-3.20;99.90
7427;DHT22;3755;59.316;18.092;2023-12-28T06:12:16;-3.10;99.90
7427;DHT22;3755;59.316;18.092;2023-12-28T06:14:43;-3.00;99.90
7427;DHT22;3755;59.316;18.092;2023-12-28T06:17:11;-3.00;99.90
7427;DHT22;3755;59.316;18.092;2023-12-28T06:19:40;-3.30;99.90
7427;DHT22;3755;59.316;18.092;2023-12-28T06:22:07;-2.40;99.90
7427;DHT22;3755;59.316;18.092;2023-12-28T06:24:39;-2.80;99.90
7427;DHT22;3755;59.316;18.092;2023-12-28T06:27:06;-2.70;99.90
7427;DHT22;3755;59.316;18.092;2023-12-28T06:29:35;-2.60;99.90
7427;DHT22;3755;59.316;18.092;2023-12-28T06:32:03;-2.50;99.90
7427;DHT22;3755;59.316;18.092;2023-12-28T06:34:30;-2.50;99.90
7427;DHT22;3755;59.316;18.092;2023-12-28T06:36:58;-2.40;99.90
7427;DHT22;3755;59.316;18.092;2023-12-28T06:39:27;-2.40;99.90
7427;DHT22;3755;59.316;18.092;2023-12-28T06:41:56;-2.40;99.90
7427;DHT22;3755;59.316;18.092;2023-12-28T06:44:23;-2.30;99.90
7427;DHT22;3755;59.316;18.092;2023-12-28T06:46:52;-2.30;99.90
7427;DHT22;3755;59.316;18.092;2023-12-28T06:49:33;-2.30;99.90
7427;DHT22;3755;59.316;18.092;2023-12-28T06:52:01;-2.20;99.90
7427;DHT22;3755;59.316;18.092;2023-12-28T06:54:29;-2.10;99.90
7427;DHT22;3755;59.316;18.092;2023-12-28T06:56:58;-2.10;99.90
7427;DHT22;3755;59.316;18.092;2023-12-28T06:59:25;-2.10;99.90
7427;DHT22;3755;59.316;18.092;2023-12-28T07:01:52;-2.10;99.90
7427;DHT22;3755;59.316;18.092;2023-12-28T07:04:19;-2.10;99.90
7427;DHT22;3755;59.316;18.092;2023-12-28T07:06:47;-2.10;99.90
7427;DHT22;3755;59.316;18.092;2023-12-28T07:09:14;-1.60;99.90
7427;DHT22;3755;59.316;18.092;2023-12-28T07:11:42;-2.00;99.90
7427;DHT22;3755;59.316;18.092;2023-12-28T07:14:17;-2.00;99.90
7427;DHT22;3755;59.316;18.092;2023-12-28T07:16:47;-1.90;99.90
7427;DHT22;3755;59.316;18.092;2023-12-28T07:19:14;-1.90;99.90
7427;DHT22;3755;59.316;18.092;2023-12-28T07:21:42;-1.50;99.90
7427;DHT22;3755;59.316;18.092;2023-12-28T07:24:09;-1.30;99.90
7427;DHT22;3755;59.316;18.092;2023-12-28T07:26:37;-1.90;99.90
7427;DHT22;3755;59.316;18.092;2023-12-28T07:29:05;-1.60;99.90
7427;DHT22;3755;59.316;18.092;2023-12-28T07:31:35;-1.00;99.90
7427;DHT22;3755;59.316;18.092;2023-12-28T07:34:03;-1.60;99.90
7427;DHT22;3755;59.316;18.092;2023-12-28T07:36:31;-1.50;99.90
7427;DHT22;3755;59.316;18.092;2023-12-28T07:38:59;-1.40;99.90
7427;DHT22;3755;59.316;18.092;2023-12-28T07:41:27;-1.40;99.90
7427;DHT22;3755;59.316;18.092;2023-12-28T07:43:55;-1.40;99.90
7427;DHT22;3755;59.316;18.092;2023-12-28T07:46:39;-1.30;99.90
7427;DHT22;3755;59.316;18.092;2023-12-28T07:49:26;-1.00;99.90
7427;DHT22;3755;59.316;18.092;2023-12-28T07:51:58;-1.30;99.90
7427;DHT22;3755;59.316;18.092;2023-12-28T07:54:26;-1.30;99.90
7427;DHT22;3755;59.316;18.092;2023-12-28T07:56:54;-1.30;99.90
7427;DHT22;3755;59.316;18.092;2023-12-28T07:59:24;-1.20;99.90
7427;DHT22;3755;59.316;18.092;2023-12-28T08:01:53;-1.30;99.90
7427;DHT22;3755;59.316;18.092;2023-12-28T08:04:20;-1.30;99.90
7427;DHT22;3755;59.316;18.092;2023-12-28T08:06:50;-1.30;99.90
7427;DHT22;3755;59.316;18.092;2023-12-28T08:09:18;-1.30;99.90
7427;DHT22;3755;59.316;18.092;2023-12-28T08:11:45;-1.30;99.90
7427;DHT22;3755;59.316;18.092;2023-12-28T08:14:13;-1.20;99.90
7427;DHT22;3755;59.316;18.092;2023-12-28T08:16:56;-1.20;99.90
7427;DHT22;3755;59.316;18.092;2023-12-28T08:19:24;-1.20;99.90
7427;DHT22;3755;59.316;18.092;2023-12-28T08:21:51;-1.20;99.90
7427;DHT22;3755;59.316;18.092;2023-12-28T08:24:18;-1.20;99.90
7427;DHT22;3755;59.316;18.092;2023-12-28T08:26:45;-1.20;99.90
7427;DHT22;3755;59.316;18.092;2023-12-28T08:29:13;-1.10;99.90
7427;DHT22;3755;59.316;18.092;2023-12-28T08:31:43;-1.10;99.90
7427;DHT22;3755;59.316;18.092;2023-12-28T08:34:13;-1.10;99.90
7427;DHT22;3755;59.316;18.092;2023-12-28T08:36:53;-1.10;99.90
7427;DHT22;3755;59.316;18.092;2023-12-28T08:39:21;-1.10;99.90
7427;DHT22;3755;59.316;18.092;2023-12-28T08:41:50;-1.10;99.90
7427;DHT22;3755;59.316;18.092;2023-12-28T08:44:37;-1.10;99.90
7427;DHT22;3755;59.316;18.092;2023-12-28T08:47:04;-1.10;99.90
7427;DHT22;3755;59.316;18.092;2023-12-28T08:49:35;-1.10;99.90
7427;DHT22;3755;59.316;18.092;2023-12-28T08:52:03;-1.40;99.90
7427;DHT22;3755;59.316;18.092;2023-12-28T08:54:46;-1.10;99.90
7427;DHT22;3755;59.316;18.092;2023-12-28T08:57:29;-1.00;99.90
7427;DHT22;3755;59.316;18.092;2023-12-28T09:00:14;-1.10;99.90
7427;DHT22;3755;59.316;18.092;2023-12-28T09:02:56;-1.00;99.90
7427;DHT22;3755;59.316;18.092;2023-12-28T09:05:26;-1.00;99.90
7427;DHT22;3755;59.316;18.092;2023-12-28T09:08:16;-1.00;99.90
7427;DHT22;3755;59.316;18.092;2023-12-28T09:10:44;-1.00;99.90
7427;DHT22;3755;59.316;18.092;2023-12-28T09:13:15;-0.90;99.90
7427;DHT22;3755;59.316;18.092;2023-12-28T09:15:56;-0.80;99.90
7427;DHT22;3755;59.316;18.092;2023-12-28T09:18:27;-0.80;99.90
7427;DHT22;3755;59.316;18.092;2023-12-28T09:21:05;-0.70;99.90
7427;DHT22;3755;59.316;18.092;2023-12-28T09:23:38;-0.70;99.90
7427;DHT22;3755;59.316;18.092;2023-12-28T09:26:07;-0.60;99.90
7427;DHT22;3755;59.316;18.092;2023-12-28T09:28:47;-0.60;99.90
7427;DHT22;3755;59.316;18.092;2023-12-28T09:31:15;-0.50;99.90
7427;DHT22;3755;59.316;18.092;2023-12-28T09:33:57;-0.50;99.90
7427;DHT22;3755;59.316;18.092;2023-12-28T09:36:26;-0.40;99.90
7427;DHT22;3755;59.316;18.092;2023-12-28T09:38:54;-0.40;99.90
7427;DHT22;3755;59.316;18.092;2023-12-28T09:41:38;-0.40;99.90
7427;DHT22;3755;59.316;18.092;2023-12-28T09:44:08;-0.30;99.90
7427;DHT22;3755;59.316;18.092;2023-12-28T09:46:50;-0.30;99.90
7427;DHT22;3755;59.316;18.092;2023-12-28T09:49:19;-0.30;99.90
7427;DHT22;3755;59.316;18.092;2023-12-28T09:51:52;-0.10;99.90
7427;DHT22;3755;59.316;18.092;2023-12-28T09:54:48;-0.10;99.90
7427;DHT22;3755;59.316;18.092;2023-12-28T09:57:16;-0.10;99.90
7427;DHT22;3755;59.316;18.092;2023-12-28T09:59:44;0.00;99.90
7427;DHT22;3755;59.316;18.092;2023-12-28T10:02:12;0.30;99.90
7427;DHT22;3755;59.316;18.092;2023-12-28T10:04:39;0.00;99.90
7427;DHT22;3755;59.316;18.092;2023-12-28T10:07:09;0.00;99.90
7427;DHT22;3755;59.316;18.092;2023-12-28T10:09:37;0.10;99.90
7427;DHT22;3755;59.316;18.092;2023-12-28T10:12:05;0.10;99.90
7427;DHT22;3755;59.316;18.092;2023-12-28T10:14:35;0.10;99.90
7427;DHT22;3755;59.316;18.092;2023-12-28T10:17:04;0.10;99.90
7427;DHT22;3755;59.316;18.092;2023-12-28T10:19:32;0.10;99.90
7427;DHT22;3755;59.316;18.092;2023-12-28T10:22:00;0.10;99.90
7427;DHT22;3755;59.316;18.092;2023-12-28T10:24:29;0.20;99.90
7427;DHT22;3755;59.316;18.092;2023-12-28T10:26:57;0.20;99.90
7427;DHT22;3755;59.316;18.092;2023-12-28T10:29:26;0.30;99.90
7427;DHT22;3755;59.316;18.092;2023-12-28T10:31:54;0.30;99.90
7427;DHT22;3755;59.316;18.092;2023-12-28T10:34:22;0.40;99.90
7427;DHT22;3755;59.316;18.092;2023-12-28T10:36:50;0.40;99.90
7427;DHT22;3755;59.316;18.092;2023-12-28T10:39:20;0.40;99.90
7427;DHT22;3755;59.316;18.092;2023-12-28T10:41:53;0.50;99.90
7427;DHT22;3755;59.316;18.092;2023-12-28T10:44:27;0.50;99.90
7427;DHT22;3755;59.316;18.092;2023-12-28T10:47:01;0.60;99.90
7427;DHT22;3755;59.316;18.092;2023-12-28T10:49:30;0.70;99.90
7427;DHT22;3755;59.316;18.092;2023-12-28T10:52:00;0.70;99.90
7427;DHT22;3755;59.316;18.092;2023-12-28T10:54:40;0.70;99.90
7427;DHT22;3755;59.316;18.092;2023-12-28T10:57:15;0.70;99.90
7427;DHT22;3755;59.316;18.092;2023-12-28T10:59:53;0.80;99.90
7427;DHT22;3755;59.316;18.092;2023-12-28T11:02:29;0.80;99.90
7427;DHT22;3755;59.316;18.092;2023-12-28T11:05:00;0.80;99.90
7427;DHT22;3755;59.316;18.092;2023-12-28T11:07:29;0.80;99.90
7427;DHT22;3755;59.316;18.092;2023-12-28T11:10:12;0.90;99.90
7427;DHT22;3755;59.316;18.092;2023-12-28T11:12:43;0.90;99.90
7427;DHT22;3755;59.316;18.092;2023-12-28T11:15:13;0.90;99.90
7427;DHT22;3755;59.316;18.092;2023-12-28T11:17:40;0.90;99.90
7427;DHT22;3755;59.316;18.092;2023-12-28T11:20:09;0.90;99.90
7427;DHT22;3755;59.316;18.092;2023-12-28T11:22:37;0.90;99.90
7427;DHT22;3755;59.316;18.092;2023-12-28T11:25:05;0.90;99.90
7427;DHT22;3755;59.316;18.092;2023-12-28T11:27:34;1.00;99.90
7427;DHT22;3755;59.316;18.092;2023-12-28T11:30:06;1.00;99.90
7427;DHT22;3755;59.316;18.092;2023-12-28T11:32:38;1.00;99.90
7427;DHT22;3755;59.316;18.092;2023-12-28T11:35:08;1.00;99.90
7427;DHT22;3755;59.316;18.092;2023-12-28T11:37:39;1.10;99.90
7427;DHT22;3755;59.316;18.092;2023-12-28T11:40:12;1.00;99.90
7427;DHT22;3755;59.316;18.092;2023-12-28T11:42:49;1.00;99.90
7427;DHT22;3755;59.316;18.092;2023-12-28T11:45:22;1.00;99.90
7427;DHT22;3755;59.316;18.092;2023-12-28T11:47:59;1.10;99.90
7427;DHT22;3755;59.316;18.092;2023-12-28T11:50:27;1.10;99.90
7427;DHT22;3755;59.316;18.092;2023-12-28T11:52:54;1.10;99.90
7427;DHT22;3755;59.316;18.092;2023-12-28T11:55:25;1.20;99.90
7427;DHT22;3755;59.316;18.092;2023-12-28T11:57:52;1.20;99.90
7427;DHT22;3755;59.316;18.092;2023-12-28T12:00:23;1.20;99.90
7427;DHT22;3755;59.316;18.092;2023-12-28T12:02:51;1.30;99.90
7427;DHT22;3755;59.316;18.092;2023-12-28T12:05:18;1.20;99.90
7427;DHT22;3755;59.316;18.092;2023-12-28T12:07:46;1.20;99.90
7427;DHT22;3755;59.316;18.092;2023-12-28T12:10:15;1.30;99.90
7427;DHT22;3755;59.316;18.092;2023-12-28T12:12:42;1.20;99.90
7427;DHT22;3755;59.316;18.092;2023-12-28T12:15:10;1.20;99.90
7427;DHT22;3755;59.316;18.092;2023-12-28T12:17:39;1.30;99.90
7427;DHT22;3755;59.316;18.092;2023-12-28T12:20:10;1.30;99.90
7427;DHT22;3755;59.316;18.092;2023-12-28T12:22:37;1.30;99.90
7427;DHT22;3755;59.316;18.092;2023-12-28T12:25:08;1.30;99.90
7427;DHT22;3755;59.316;18.092;2023-12-28T12:27:36;1.30;99.90
7427;DHT22;3755;59.316;18.092;2023-12-28T12:30:05;1.40;99.90
7427;DHT22;3755;59.316;18.092;2023-12-28T12:32:34;1.40;99.90
7427;DHT22;3755;59.316;18.092;2023-12-28T12:35:05;1.40;99.90
7427;DHT22;3755;59.316;18.092;2023-12-28T12:37:33;1.40;99.90
7427;DHT22;3755;59.316;18.092;2023-12-28T12:40:02;1.40;99.90
7427;DHT22;3755;59.316;18.092;2023-12-28T12:42:44;1.50;99.90
7427;DHT22;3755;59.316;18.092;2023-12-28T12:45:19;1.50;99.90
7427;DHT22;3755;59.316;18.092;2023-12-28T12:47:51;1.50;99.90
7427;DHT22;3755;59.316;18.092;2023-12-28T12:50:21;1.60;99.90
7427;DHT22;3755;59.316;18.092;2023-12-28T12:52:48;1.60;99.90
7427;DHT22;3755;59.316;18.092;2023-12-28T12:55:15;1.60;99.90
7427;DHT22;3755;59.316;18.092;2023-12-28T12:57:43;1.60;99.90
7427;DHT22;3755;59.316;18.092;2023-12-28T13:00:12;1.60;99.90
7427;DHT22;3755;59.316;18.092;2023-12-28T13:02:40;1.70;99.90
7427;DHT22;3755;59.316;18.092;2023-12-28T13:05:08;1.60;99.90
7427;DHT22;3755;59.316;18.092;2023-12-28T13:07:39;1.70;99.90
7427;DHT22;3755;59.316;18.092;2023-12-28T13:10:11;1.70;99.90
7427;DHT22;3755;59.316;18.092;2023-12-28T13:12:40;1.70;99.90
7427;DHT22;3755;59.316;18.092;2023-12-28T13:15:08;1.70;99.90
7427;DHT22;3755;59.316;18.092;2023-12-28T13:17:38;1.70;99.90
7427;DHT22;3755;59.316;18.092;2023-12-28T13:20:19;1.70;99.90
7427;DHT22;3755;59.316;18.092;2023-12-28T13:22:49;1.80;99.90
7427;DHT22;3755;59.316;18.092;2023-12-28T13:25:18;1.80;99.90
7427;DHT22;3755;59.316;18.092;2023-12-28T13:27:48;1.80;99.90
7427;DHT22;3755;59.316;18.092;2023-12-28T13:30:15;1.80;99.90
7427;DHT22;3755;59.316;18.092;2023-12-28T13:32:42;1.80;99.90
7427;DHT22;3755;59.316;18.092;2023-12-28T13:35:11;1.90;99.90
7427;DHT22;3755;59.316;18.092;2023-12-28T13:37:38;2.00;99.90
7427;DHT22;3755;59.316;18.092;2023-12-28T13:40:09;1.90;99.90
7427;DHT22;3755;59.316;18.092;2023-12-28T13:42:36;1.90;99.90
7427;DHT22;3755;59.316;18.092;2023-12-28T13:45:04;1.80;99.90
7427;DHT22;3755;59.316;18.092;2023-12-28T13:47:34;1.90;99.90
7427;DHT22;3755;59.316;18.092;2023-12-28T13:50:02;1.90;99.90
7427;DHT22;3755;59.316;18.092;2023-12-28T13:52:34;1.90;99.90
7427;DHT22;3755;59.316;18.092;2023-12-28T13:55:17;1.90;99.90
7427;DHT22;3755;59.316;18.092;2023-12-28T13:57:59;1.80;99.90
7427;DHT22;3755;59.316;18.092;2023-12-28T14:00:26;1.80;99.90
7427;DHT22;3755;59.316;18.092;2023-12-28T14:02:53;1.90;99.90
7427;DHT22;3755;59.316;18.092;2023-12-28T14:05:21;1.90;99.90
7427;DHT22;3755;59.316;18.092;2023-12-28T14:07:49;1.90;99.90
7427;DHT22;3755;59.316;18.092;2023-12-28T14:10:19;1.90;99.90
7427;DHT22;3755;59.316;18.092;2023-12-28T14:12:46;1.90;99.90
7427;DHT22;3755;59.316;18.092;2023-12-28T14:15:14;1.80;99.90
7427;DHT22;3755;59.316;18.092;2023-12-28T14:17:50;2.00;99.90
7427;DHT22;3755;59.316;18.092;2023-12-28T14:20:17;2.00;99.90
7427;DHT22;3755;59.316;18.092;2023-12-28T14:22:46;2.00;99.90
7427;DHT22;3755;59.316;18.092;2023-12-28T14:25:15;2.10;99.90
7427;DHT22;3755;59.316;18.092;2023-12-28T14:27:44;2.10;99.90
7427;DHT22;3755;59.316;18.092;2023-12-28T14:30:15;2.10;99.90
7427;DHT22;3755;59.316;18.092;2023-12-28T14:32:43;2.10;99.90
7427;DHT22;3755;59.316;18.092;2023-12-28T14:35:13;2.10;99.90
7427;DHT22;3755;59.316;18.092;2023-12-28T14:37:42;2.20;99.90
7427;DHT22;3755;59.316;18.092;2023-12-28T14:40:10;2.20;99.90
7427;DHT22;3755;59.316;18.092;2023-12-28T14:42:37;2.20;99.90
7427;DHT22;3755;59.316;18.092;2023-12-28T14:45:08;2.30;99.90
7427;DHT22;3755;59.316;18.092;2023-12-28T14:47:39;2.40;99.90
7427;DHT22;3755;59.316;18.092;2023-12-28T14:50:07;2.40;99.90
7427;DHT22;3755;59.316;18.092;2023-12-28T14:52:35;2.40;99.90
7427;DHT22;3755;59.316;18.092;2023-12-28T14:55:08;2.50;99.90
7427;DHT22;3755;59.316;18.092;2023-12-28T14:57:47;2.50;99.90
7427;DHT22;3755;59.316;18.092;2023-12-28T15:00:17;2.50;99.90
7427;DHT22;3755;59.316;18.092;2023-12-28T15:02:45;2.50;99.90
7427;DHT22;3755;59.316;18.092;2023-12-28T15:05:13;2.50;99.90
7427;DHT22;3755;59.316;18.092;2023-12-28T15:07:43;2.50;99.90
7427;DHT22;3755;59.316;18.092;2023-12-28T15:10:24;2.50;99.90
7427;DHT22;3755;59.316;18.092;2023-12-28T15:12:55;2.40;99.90
7427;DHT22;3755;59.316;18.092;2023-12-28T15:21:52;2.40;99.90
7427;DHT22;3755;59.316;18.092;2023-12-28T15:24:34;2.40;99.90
7427;DHT22;3755;59.316;18.092;2023-12-28T15:27:09;2.40;99.90
7427;DHT22;3755;59.316;18.092;2023-12-28T15:29:38;2.30;99.90
7427;DHT22;3755;59.316;18.092;2023-12-28T15:32:06;2.40;99.90
7427;DHT22;3755;59.316;18.092;2023-12-28T15:34:34;2.30;99.90
7427;DHT22;3755;59.316;18.092;2023-12-28T15:37:05;2.30;99.90
7427;DHT22;3755;59.316;18.092;2023-12-28T15:39:45;2.30;99.90
7427;DHT22;3755;59.316;18.092;2023-12-28T15:42:12;2.40;99.90
7427;DHT22;3755;59.316;18.092;2023-12-28T15:44:39;2.40;99.90
7427;DHT22;3755;59.316;18.092;2023-12-28T15:47:07;2.30;99.90
7427;DHT22;3755;59.316;18.092;2023-12-28T15:49:48;2.30;99.90
7427;DHT22;3755;59.316;18.092;2023-12-28T15:52:17;2.30;99.90
7427;DHT22;3755;59.316;18.092;2023-12-28T15:54:54;2.30;99.90
7427;DHT22;3755;59.316;18.092;2023-12-28T15:57:21;2.30;99.90
7427;DHT22;3755;59.316;18.092;2023-12-28T15:59:50;2.30;99.90
7427;DHT22;3755;59.316;18.092;2023-12-28T16:02:23;2.30;99.90
7427;DHT22;3755;59.316;18.092;2023-12-28T16:04:52;2.30;99.90
7427;DHT22;3755;59.316;18.092;2023-12-28T16:07:21;2.30;99.90
7427;DHT22;3755;59.316;18.092;2023-12-28T16:09:49;2.30;99.90
7427;DHT22;3755;59.316;18.092;2023-12-28T16:12:18;2.30;99.90
7427;DHT22;3755;59.316;18.092;2023-12-28T16:14:45;2.30;99.90
7427;DHT22;3755;59.316;18.092;2023-12-28T16:17:13;2.30;99.90